createdAt,value
2023-04-05T00:02:05.355Z,3.30
2023-04-05T00:04:35.460Z,3.07
2023-04-05T00:07:08.101Z,3.03
2023-04-05T00:09:36.570Z,2.97
2023-04-05T00:12:04.294Z,3.30
2023-04-05T00:14:31.703Z,2.90
2023-04-05T00:16:59.645Z,2.90
2023-04-05T00:19:27.096Z,2.93
2023-04-05T00:21:55.966Z,2.97
2023-04-05T00:24:24.352Z,3.10
2023-04-05T00:26:51.806Z,2.90
2023-04-05T00:29:19.219Z,3.10
2023-04-05T00:31:46.614Z,3.37
2023-04-05T00:34:13.989Z,2.50
2023-04-05T00:36:41.438Z,2.87
2023-04-05T00:39:10.340Z,3.30
2023-04-05T00:41:37.836Z,3.20
2023-04-05T00:44:06.180Z,2.93
2023-04-05T00:46:36.495Z,3.27
2023-04-05T00:49:04.384Z,3.10
2023-04-05T00:51:32.318Z,3.20
2023-04-05T00:53:59.840Z,3.23
2023-04-05T00:56:29.244Z,3.10
2023-04-05T00:58:56.810Z,3.00
2023-04-05T01:01:24.922Z,3.00
2023-04-05T01:03:54.662Z,3.37
2023-04-05T01:06:28.330Z,2.87
2023-04-05T01:09:00.393Z,3.40
2023-04-05T01:11:30.213Z,3.30
2023-04-05T01:14:00.918Z,3.60
2023-04-05T01:16:28.469Z,3.20
2023-04-05T01:18:56.853Z,3.57
2023-04-05T01:21:38.975Z,3.50
2023-04-05T01:24:14.855Z,3.03
2023-04-05T01:26:57.598Z,3.40
2023-04-05T01:29:35.974Z,3.67
2023-04-05T01:32:05.256Z,3.77
2023-04-05T01:34:34.871Z,4.00
2023-04-05T01:37:04.060Z,3.40
2023-04-05T01:39:32.129Z,3.33
2023-04-05T01:41:59.971Z,3.43
2023-04-05T01:44:27.404Z,4.00
2023-04-05T01:46:56.264Z,3.57
2023-04-05T01:49:24.353Z,3.20
2023-04-05T01:51:51.826Z,3.77
2023-04-05T01:54:19.241Z,3.60
2023-04-05T01:56:46.630Z,3.60
2023-04-05T01:59:14.345Z,3.40
2023-04-05T02:01:41.843Z,3.80
2023-04-05T02:04:10.578Z,3.47
2023-04-05T02:06:38.009Z,3.83
2023-04-05T02:09:05.582Z,3.63
2023-04-05T02:11:33.065Z,3.50
2023-04-05T02:14:00.491Z,3.70
2023-04-05T02:16:28.279Z,3.47
2023-04-05T02:18:57.801Z,3.80
2023-04-05T02:21:27.260Z,3.70
2023-04-05T02:23:55.018Z,3.53
2023-04-05T02:26:22.458Z,3.20
2023-04-05T02:28:50.086Z,3.80
2023-04-05T02:31:17.566Z,3.73
2023-04-05T02:33:45.019Z,3.70
2023-04-05T02:36:13.235Z,3.40
2023-04-05T02:38:42.007Z,3.07
2023-04-05T02:41:10.782Z,3.20
2023-04-05T02:43:38.361Z,3.00
2023-04-05T02:46:05.883Z,3.20
2023-04-05T02:48:33.730Z,3.63
2023-04-05T02:51:01.165Z,3.73
2023-04-05T02:53:28.712Z,3.10
2023-04-05T02:55:59.817Z,3.37
2023-04-05T02:58:27.268Z,3.70
2023-04-05T03:00:56.563Z,3.40
2023-04-05T03:03:24.494Z,3.20
2023-04-05T03:05:59.129Z,3.40
2023-04-05T03:08:26.593Z,3.20
2023-04-05T03:10:55.638Z,3.23
2023-04-05T03:16:52.818Z,3.20
2023-04-05T03:19:22.322Z,3.17
2023-04-05T03:21:49.931Z,3.50
2023-04-05T03:24:17.607Z,3.70
2023-04-05T03:26:45.103Z,3.00
2023-04-05T03:29:12.472Z,3.00
2023-04-05T03:31:39.811Z,3.30
2023-04-05T03:34:08.927Z,3.17
2023-04-05T03:36:42.764Z,3.00
2023-04-05T03:39:10.629Z,3.10
2023-04-05T03:41:38.033Z,3.20
2023-04-05T03:44:05.761Z,2.80
2023-04-05T03:46:34.070Z,2.70
2023-04-05T03:49:02.130Z,3.00
2023-04-05T03:51:31.119Z,3.20
2023-04-05T03:53:58.612Z,3.20
2023-04-05T03:56:27.202Z,3.20
2023-04-05T03:58:54.828Z,3.50
2023-04-05T04:01:22.433Z,3.60
2023-04-05T04:03:50.137Z,3.03
2023-04-05T04:06:19.552Z,3.67
2023-04-05T04:08:48.483Z,3.23
2023-04-05T04:11:15.885Z,3.57
2023-04-05T04:13:43.367Z,2.90
2023-04-05T04:16:11.353Z,3.47
2023-04-05T04:18:38.854Z,3.37
2023-04-05T04:21:07.087Z,3.10
2023-04-05T04:23:38.533Z,3.47
2023-04-05T04:26:07.325Z,3.47
2023-04-05T04:28:38.658Z,2.83
2023-04-05T04:31:09.070Z,3.57
2023-04-05T04:33:36.569Z,3.03
2023-04-05T04:36:07.061Z,3.00
2023-04-05T04:38:34.918Z,3.30
2023-04-05T04:41:07.192Z,2.90
2023-04-05T04:43:42.855Z,3.10
2023-04-05T04:46:14.738Z,3.00
2023-04-05T04:48:43.124Z,3.13
2023-04-05T04:51:10.635Z,3.30
2023-04-05T04:53:38.110Z,3.40
2023-04-05T04:56:07.398Z,3.00
2023-04-05T04:58:36.553Z,3.53
2023-04-05T05:01:08.751Z,2.97
2023-04-05T05:03:36.553Z,3.20
2023-04-05T05:06:04.821Z,3.20
2023-04-05T05:08:32.341Z,3.27
2023-04-05T05:10:59.915Z,3.20
2023-04-05T05:13:27.308Z,3.40
2023-04-05T05:15:56.206Z,3.40
2023-04-05T05:18:23.655Z,3.50
2023-04-05T05:20:51.810Z,3.33
2023-04-05T05:23:21.428Z,3.23
2023-04-05T05:25:48.895Z,3.23
2023-04-05T05:28:16.510Z,3.40
2023-04-05T05:30:44.961Z,3.27
2023-04-05T05:33:13.985Z,3.33
2023-04-05T05:35:42.033Z,3.43
2023-04-05T05:38:11.366Z,3.47
2023-04-05T05:40:41.533Z,3.80
2023-04-05T05:43:10.472Z,3.17
2023-04-05T05:45:38.049Z,3.30
2023-04-05T05:48:05.920Z,3.57
2023-04-05T05:50:34.707Z,3.50
2023-04-05T05:53:02.438Z,3.53
2023-04-05T05:55:29.847Z,3.73
2023-04-05T05:57:57.405Z,3.50
2023-04-05T06:00:25.027Z,3.63
2023-04-05T06:02:53.713Z,3.40
2023-04-05T06:05:21.249Z,3.50
2023-04-05T06:07:50.090Z,3.77
2023-04-05T06:10:17.752Z,3.83
2023-04-05T06:12:45.318Z,3.80
2023-04-05T06:15:12.777Z,4.20
2023-04-05T06:17:42.601Z,3.60
2023-04-05T06:20:11.486Z,4.00
2023-04-05T06:22:40.328Z,4.30
2023-04-05T06:25:10.159Z,4.90
2023-04-05T06:27:37.615Z,4.07
2023-04-05T06:30:05.336Z,4.17
2023-04-05T06:32:32.766Z,5.30
2023-04-05T06:35:01.224Z,6.60
2023-04-05T06:37:28.639Z,6.70
2023-04-05T06:39:56.119Z,4.10
2023-04-05T06:42:26.494Z,4.20
2023-04-05T06:44:55.408Z,3.90
2023-04-05T06:47:22.793Z,3.87
2023-04-05T06:49:50.385Z,4.33
2023-04-05T06:52:17.827Z,4.20
2023-04-05T06:54:45.358Z,4.53
2023-04-05T06:57:12.809Z,4.57
2023-04-05T06:59:41.798Z,4.17
2023-04-05T07:02:09.201Z,3.73
2023-04-05T07:04:37.010Z,4.20
2023-04-05T07:07:04.763Z,4.20
2023-04-05T07:09:33.648Z,4.07
2023-04-05T07:12:01.368Z,4.23
2023-04-05T07:14:30.479Z,4.10
2023-04-05T07:16:59.281Z,4.80
2023-04-05T07:19:27.278Z,4.10
2023-04-05T07:21:54.804Z,4.70
2023-04-05T07:24:22.294Z,4.40
2023-04-05T07:26:49.731Z,4.77
2023-04-05T07:29:17.132Z,5.03
2023-04-05T07:31:44.735Z,4.47
2023-04-05T07:34:13.851Z,4.00
2023-04-05T07:36:41.816Z,4.60
2023-04-05T07:39:09.602Z,4.17
2023-04-05T07:41:37.586Z,3.60
2023-04-05T07:44:05.309Z,4.27
2023-04-05T07:46:32.805Z,4.60
2023-04-05T07:49:00.791Z,4.47
2023-04-05T07:51:29.558Z,4.00
2023-04-05T07:53:57.005Z,4.40
2023-04-05T07:56:24.356Z,4.10
2023-04-05T07:58:54.889Z,4.17
2023-04-05T08:01:23.840Z,4.77
2023-04-05T08:03:51.378Z,3.90
2023-04-05T08:06:18.978Z,4.10
2023-04-05T08:08:48.019Z,4.20
2023-04-05T08:11:15.551Z,4.30
2023-04-05T08:13:43.671Z,4.33
2023-04-05T08:16:11.814Z,3.77
2023-04-05T08:18:39.481Z,5.07
2023-04-05T08:21:06.966Z,3.90
2023-04-05T08:23:34.351Z,3.87
2023-04-05T08:26:03.150Z,4.20
2023-04-05T08:28:30.621Z,4.20
2023-04-05T08:30:58.212Z,4.20
2023-04-05T08:33:26.451Z,4.27
2023-04-05T08:35:54.086Z,4.07
2023-04-05T08:38:21.591Z,3.80
2023-04-05T08:40:49.285Z,3.87
2023-04-05T08:43:20.518Z,3.70
2023-04-05T08:45:49.042Z,4.40
2023-04-05T08:48:17.101Z,3.60
2023-04-05T08:50:50.867Z,4.67
2023-04-05T08:53:18.400Z,4.17
2023-04-05T08:55:49.899Z,3.97
2023-04-05T08:58:19.716Z,4.23
2023-04-05T09:00:47.573Z,3.80
2023-04-05T09:03:16.957Z,4.07
2023-04-05T09:05:46.657Z,4.20
2023-04-05T09:08:14.468Z,3.63
2023-04-05T09:10:42.186Z,3.83
2023-04-05T09:13:12.677Z,3.93
2023-04-05T09:15:41.614Z,3.83
2023-04-05T09:18:19.119Z,3.67
2023-04-05T09:20:57.227Z,3.50
2023-04-05T09:23:24.850Z,4.03
2023-04-05T09:25:52.668Z,4.40
2023-04-05T09:28:20.373Z,3.73
2023-04-05T09:30:49.284Z,3.80
2023-04-05T09:33:19.679Z,3.70
2023-04-05T09:35:51.022Z,3.73
2023-04-05T09:38:18.440Z,3.73
2023-04-05T09:40:46.479Z,3.60
2023-04-05T09:43:14.415Z,4.00
2023-04-05T09:45:42.583Z,3.60
2023-04-05T09:48:12.535Z,4.47
2023-04-05T09:50:40.290Z,3.60
2023-04-05T09:53:09.082Z,3.37
2023-04-05T09:55:36.905Z,4.23
2023-04-05T09:58:04.481Z,3.80
2023-04-05T10:00:32.494Z,3.70
2023-04-05T10:03:00.258Z,3.77
2023-04-05T10:05:29.828Z,3.93
2023-04-05T10:07:57.528Z,3.80
2023-04-05T10:10:25.242Z,4.10
2023-04-05T10:12:53.724Z,4.23
2023-04-05T10:15:21.287Z,3.63
2023-04-05T10:17:51.499Z,3.67
2023-04-05T10:20:19.562Z,4.20
2023-04-05T10:23:02.782Z,3.63
2023-04-05T10:25:34.420Z,4.20
2023-04-05T10:28:04.952Z,3.50
2023-04-05T10:30:35.919Z,3.80
2023-04-05T10:33:08.471Z,3.90
2023-04-05T10:35:41.695Z,3.60
2023-04-05T10:38:18.487Z,4.50
2023-04-05T10:40:47.795Z,3.70
2023-04-05T10:43:16.827Z,4.00
2023-04-05T10:45:45.094Z,3.97
2023-04-05T10:48:16.914Z,3.97
2023-04-05T10:50:45.409Z,5.07
2023-04-05T10:53:14.718Z,4.20
2023-04-05T10:55:42.737Z,3.77
2023-04-05T10:58:11.001Z,3.93
2023-04-05T11:00:38.707Z,3.60
2023-04-05T11:03:06.464Z,3.63
2023-04-05T11:05:35.170Z,3.60
2023-04-05T11:08:06.825Z,3.97
2023-04-05T11:10:37.068Z,4.07
2023-04-05T11:13:05.682Z,4.50
2023-04-05T11:15:34.297Z,4.10
2023-04-05T11:18:06.159Z,4.60
2023-04-05T11:20:43.832Z,4.37
2023-04-05T11:23:11.578Z,4.57
2023-04-05T11:25:41.381Z,4.40
2023-04-05T11:28:09.767Z,4.40
2023-04-05T11:30:51.361Z,4.30
2023-04-05T11:33:43.383Z,4.20
2023-04-05T11:36:11.413Z,4.40
2023-04-05T11:38:40.841Z,4.40
2023-04-05T11:41:12.712Z,4.40
2023-04-05T11:43:42.101Z,3.90
2023-04-05T11:46:09.595Z,4.90
2023-04-05T11:48:37.133Z,4.40
2023-04-05T11:51:08.201Z,4.80
2023-04-05T11:53:35.680Z,4.50
2023-04-05T11:56:08.125Z,4.23
2023-04-05T11:58:37.829Z,4.77
2023-04-05T12:01:07.109Z,4.03
2023-04-05T12:03:34.997Z,5.23
2023-04-05T12:06:06.176Z,4.90
2023-04-05T12:08:41.204Z,4.53
2023-04-05T12:11:10.137Z,4.80
2023-04-05T12:13:39.756Z,4.70
2023-04-05T12:16:08.291Z,5.00
2023-04-05T12:18:37.109Z,4.70
2023-04-05T12:21:07.714Z,5.20
2023-04-05T12:23:36.025Z,4.90
2023-04-05T12:26:04.474Z,5.00
2023-04-05T12:28:46.802Z,4.67
2023-04-05T12:31:15.619Z,5.60
2023-04-05T12:33:44.330Z,5.07
2023-04-05T12:36:12.601Z,4.90
2023-04-05T12:38:41.265Z,5.53
2023-04-05T12:41:08.923Z,5.23
2023-04-05T12:43:39.839Z,5.17
2023-04-05T12:46:08.137Z,5.00
2023-04-05T12:48:38.094Z,5.30
2023-04-05T12:51:05.767Z,5.60
2023-04-05T12:53:33.414Z,5.97
2023-04-05T12:56:01.595Z,5.97
2023-04-05T12:58:33.761Z,5.80
2023-04-05T13:01:01.227Z,5.63
2023-04-05T13:03:29.006Z,5.93
2023-04-05T13:05:58.438Z,5.30
2023-04-05T13:08:27.557Z,5.23
2023-04-05T13:10:57.749Z,5.10
2023-04-05T13:13:25.774Z,4.80
2023-04-05T13:15:53.318Z,5.47
2023-04-05T13:18:20.932Z,5.47
2023-04-05T13:20:48.412Z,5.47
2023-04-05T13:23:17.214Z,5.03
2023-04-05T13:25:46.186Z,5.03
2023-04-05T13:28:13.724Z,5.63
2023-04-05T13:30:41.183Z,5.50
2023-04-05T13:33:08.711Z,5.67
2023-04-05T13:35:36.392Z,5.20
2023-04-05T13:38:04.877Z,5.03
2023-04-05T13:40:33.892Z,5.60
2023-04-05T13:43:01.398Z,5.53
2023-04-05T13:45:28.859Z,5.20
2023-04-05T13:47:56.476Z,5.30
2023-04-05T13:50:23.938Z,5.07
2023-04-05T13:52:51.860Z,5.80
2023-04-05T13:55:19.428Z,5.20
2023-04-05T13:57:48.386Z,5.63
2023-04-05T14:00:16.418Z,5.40
2023-04-05T14:02:44.111Z,5.37
2023-04-05T14:05:11.755Z,5.07
2023-04-05T14:07:39.656Z,4.97
2023-04-05T14:10:07.667Z,5.40
2023-04-05T14:12:35.310Z,5.90
2023-04-05T14:15:04.276Z,5.63
2023-04-05T14:17:31.902Z,5.17
2023-04-05T14:19:59.452Z,5.30
2023-04-05T14:22:27.028Z,5.47
2023-04-05T14:24:54.573Z,5.43
2023-04-05T14:27:26.672Z,4.90
2023-04-05T14:29:56.898Z,5.00
2023-04-05T14:32:26.449Z,5.13
2023-04-05T14:34:54.006Z,4.77
2023-04-05T14:37:24.758Z,5.50
2023-04-05T14:39:52.237Z,4.80
2023-04-05T14:42:21.366Z,4.90
2023-04-05T14:44:48.904Z,4.20
2023-04-05T14:47:16.461Z,5.13
2023-04-05T14:49:45.350Z,4.80
2023-04-05T14:52:13.491Z,4.70
2023-04-05T14:54:41.037Z,4.63
2023-04-05T14:57:08.945Z,5.50
2023-04-05T14:59:36.505Z,5.20
2023-04-05T15:02:04.163Z,5.07
2023-04-05T15:04:31.810Z,5.00
2023-04-05T15:07:00.916Z,5.10
2023-04-05T15:09:28.780Z,5.60
2023-04-05T15:11:56.566Z,5.27
2023-04-05T15:14:31.873Z,5.47
2023-04-05T15:17:00.375Z,5.23
2023-04-05T15:19:28.184Z,5.37
2023-04-05T15:21:55.796Z,5.47
2023-04-05T15:24:24.644Z,5.23
2023-04-05T15:26:52.082Z,5.53
2023-04-05T15:29:19.579Z,5.03
2023-04-05T15:31:47.666Z,4.87
2023-04-05T15:34:15.341Z,5.30
2023-04-05T15:36:42.875Z,5.20
2023-04-05T15:39:10.467Z,5.23
2023-04-05T15:41:39.428Z,5.33
2023-04-05T15:44:07.023Z,5.00
2023-04-05T15:46:34.771Z,4.80
2023-04-05T15:49:02.671Z,4.67
2023-04-05T15:51:33.905Z,4.23
2023-04-05T15:54:01.511Z,5.03
2023-04-05T15:56:29.336Z,4.87
2023-04-05T15:58:58.306Z,4.90
2023-04-05T16:01:25.897Z,4.63
2023-04-05T16:03:53.774Z,4.70
2023-04-05T16:06:22.856Z,4.87
2023-04-05T16:08:50.344Z,5.50
2023-04-05T16:11:17.898Z,4.70
2023-04-05T16:13:45.387Z,4.63
2023-04-05T16:16:20.444Z,5.13
2023-04-05T16:18:55.518Z,4.93
2023-04-05T16:21:23.152Z,4.50
2023-04-05T16:23:50.864Z,4.60
2023-04-05T16:26:18.533Z,4.97
2023-04-05T16:28:46.311Z,4.47
2023-04-05T16:31:15.242Z,4.93
2023-04-05T16:33:42.765Z,5.30
2023-04-05T16:36:10.266Z,5.40
2023-04-05T16:38:38.152Z,4.50
2023-04-05T16:41:05.818Z,5.17
2023-04-05T16:43:33.346Z,4.90
2023-04-05T16:46:00.902Z,4.83
2023-04-05T16:48:30.637Z,4.90
2023-04-05T16:50:58.271Z,4.80
2023-04-05T16:53:25.832Z,4.70
2023-04-05T16:55:53.540Z,4.77
2023-04-05T16:58:21.109Z,5.07
2023-04-05T17:00:48.646Z,4.40
2023-04-05T17:03:16.304Z,5.37
2023-04-05T17:05:45.366Z,4.80
2023-04-05T17:08:13.221Z,4.53
2023-04-05T17:10:40.745Z,4.50
2023-04-05T17:13:08.178Z,4.70
2023-04-05T17:15:35.739Z,5.40
2023-04-05T17:18:03.312Z,4.53
2023-04-05T17:20:31.116Z,4.87
2023-04-05T17:23:00.879Z,5.10
2023-04-05T17:25:28.465Z,4.93
2023-04-05T17:27:56.144Z,4.23
2023-04-05T17:30:23.717Z,4.53
2023-04-05T17:32:51.613Z,4.87
2023-04-05T17:35:19.619Z,4.87
2023-04-05T17:37:47.725Z,5.00
2023-04-05T17:40:18.553Z,4.93
2023-04-05T17:42:46.101Z,4.40
2023-04-05T17:45:13.706Z,5.17
2023-04-05T17:47:41.226Z,5.47
2023-04-05T17:50:08.983Z,5.30
2023-04-05T17:52:36.533Z,5.67
2023-04-05T17:55:04.184Z,6.13
2023-04-05T17:57:33.002Z,6.20
2023-04-05T18:00:00.725Z,5.77
2023-04-05T18:02:28.492Z,6.00
2023-04-05T18:04:56.099Z,4.00
2023-04-05T18:07:23.676Z,3.17
2023-04-05T18:09:51.199Z,3.40
2023-04-05T18:12:18.714Z,3.30
2023-04-05T18:14:47.576Z,3.30
2023-04-05T18:17:15.317Z,3.27
2023-04-05T18:19:43.082Z,3.40
2023-04-05T18:22:10.550Z,3.23
2023-04-05T18:24:38.080Z,3.33
2023-04-05T18:27:05.659Z,2.80
2023-04-05T18:29:37.820Z,2.93
2023-04-05T18:32:07.067Z,3.20
2023-04-05T18:34:34.654Z,3.03
2023-04-05T18:37:02.598Z,3.00
2023-04-05T18:39:30.123Z,2.40
2023-04-05T18:41:57.690Z,2.73
2023-04-05T18:44:25.268Z,2.80
2023-04-05T18:46:52.804Z,2.90
2023-04-05T18:49:21.909Z,2.47
2023-04-05T18:51:49.757Z,2.77
2023-04-05T18:54:18.446Z,3.00
2023-04-05T18:56:46.115Z,2.90
2023-04-05T18:59:13.671Z,2.73
2023-04-05T19:01:41.264Z,2.90
2023-04-05T19:04:08.857Z,2.80
2023-04-05T19:06:37.694Z,2.80
2023-04-05T19:09:06.245Z,3.00
2023-04-05T19:11:33.949Z,2.60
2023-04-05T19:14:03.652Z,3.00
2023-04-05T19:16:31.220Z,2.77
2023-04-05T19:18:58.901Z,3.00
2023-04-05T19:21:26.395Z,2.80
2023-04-05T19:23:56.037Z,3.00
2023-04-05T19:26:23.600Z,2.70
2023-04-05T19:28:51.323Z,2.73
2023-04-05T19:31:19.020Z,2.60
2023-04-05T19:33:46.609Z,2.83
2023-04-05T19:36:14.149Z,3.00
2023-04-05T19:38:41.676Z,3.00
2023-04-05T19:41:10.624Z,3.07
2023-04-05T19:43:40.934Z,3.20
2023-04-05T19:46:09.159Z,3.27
2023-04-05T19:48:38.173Z,3.33
2023-04-05T19:51:07.106Z,3.60
2023-04-05T19:53:44.676Z,3.33
2023-04-05T19:56:16.250Z,3.90
2023-04-05T19:58:44.011Z,4.07
2023-04-05T20:01:11.537Z,3.67
2023-04-05T20:03:39.803Z,3.60
2023-04-05T20:06:08.446Z,3.90
2023-04-05T20:08:36.800Z,4.10
2023-04-05T20:11:07.844Z,3.80
2023-04-05T20:13:46.256Z,3.73
2023-04-05T20:16:14.084Z,3.70
2023-04-05T20:18:44.932Z,3.80
2023-04-05T20:21:12.527Z,3.80
2023-04-05T20:23:40.344Z,4.07
2023-04-05T20:26:08.095Z,4.77
2023-04-05T20:28:38.364Z,4.43
2023-04-05T20:31:08.543Z,4.37
2023-04-05T20:33:41.390Z,4.60
2023-04-05T20:36:11.341Z,4.90
2023-04-05T20:38:39.217Z,5.37
2023-04-05T20:41:06.939Z,5.50
2023-04-05T20:43:34.492Z,5.60
2023-04-05T20:46:03.813Z,5.83
2023-04-05T20:48:32.765Z,5.83
2023-04-05T20:51:01.010Z,6.73
2023-04-05T20:53:28.741Z,6.30
2023-04-05T20:55:56.445Z,6.73
2023-04-05T20:58:24.058Z,6.60
2023-04-05T21:00:51.552Z,6.97
2023-04-05T21:03:19.189Z,7.00
2023-04-05T21:05:48.513Z,7.30
2023-04-05T21:08:16.223Z,7.73
2023-04-05T21:10:43.724Z,7.27
2023-04-05T21:13:11.255Z,7.77
2023-04-05T21:15:38.853Z,6.87
2023-04-05T21:18:08.193Z,7.20
2023-04-05T21:20:36.991Z,7.00
2023-04-05T21:23:07.288Z,6.87
2023-04-05T21:25:35.335Z,5.83
2023-04-05T21:28:02.935Z,6.40
2023-04-05T21:30:30.634Z,6.10
2023-04-05T21:32:58.451Z,5.60
2023-04-05T21:35:26.006Z,5.40
2023-04-05T21:37:53.583Z,5.90
2023-04-05T21:40:22.577Z,5.03
2023-04-05T21:42:50.161Z,4.80
2023-04-05T21:45:17.644Z,5.00
2023-04-05T21:47:45.195Z,5.00
2023-04-05T21:50:12.801Z,4.77
2023-04-05T21:52:40.302Z,4.60
2023-04-05T21:55:08.237Z,4.60
2023-04-05T21:57:37.141Z,4.63
2023-04-05T22:00:09.530Z,5.07
2023-04-05T22:02:37.085Z,5.33
2023-04-05T22:05:05.539Z,5.50
2023-04-05T22:07:33.198Z,5.13
2023-04-05T22:10:01.057Z,5.20
2023-04-05T22:12:28.611Z,5.90
2023-04-05T22:14:57.597Z,5.10
2023-04-05T22:17:25.245Z,5.80
2023-04-05T22:19:52.822Z,5.63
2023-04-05T22:22:20.509Z,5.93
2023-04-05T22:24:48.973Z,5.90
2023-04-05T22:27:16.429Z,5.77
2023-04-05T22:29:43.988Z,5.47
2023-04-05T22:32:12.901Z,5.57
2023-04-05T22:34:40.502Z,5.27
2023-04-05T22:37:08.016Z,5.60
2023-04-05T22:39:35.650Z,5.83
2023-04-05T22:42:03.836Z,5.50
2023-04-05T22:44:31.345Z,5.93
2023-04-05T22:46:58.879Z,5.80
2023-04-05T22:49:27.879Z,6.00
2023-04-05T22:51:55.420Z,5.77
2023-04-05T22:54:22.970Z,5.97
2023-04-05T22:56:50.537Z,6.40
2023-04-05T22:59:18.118Z,5.53
2023-04-05T23:01:45.642Z,6.33
2023-04-05T23:04:13.290Z,5.90
2023-04-05T23:06:42.216Z,6.63
2023-04-05T23:09:09.854Z,6.47
2023-04-05T23:11:37.563Z,6.80
2023-04-05T23:14:05.178Z,6.40
2023-04-05T23:16:32.698Z,5.83
2023-04-05T23:19:00.206Z,6.10
2023-04-05T23:21:27.831Z,6.33
2023-04-05T23:23:56.944Z,6.63
2023-04-05T23:26:24.425Z,6.73
2023-04-05T23:28:51.981Z,6.80
2023-04-05T23:31:19.495Z,6.03
2023-04-05T23:33:47.075Z,6.10
2023-04-05T23:36:14.621Z,6.57
2023-04-05T23:38:42.196Z,6.40
2023-04-05T23:41:11.090Z,6.50
2023-04-05T23:43:38.671Z,6.40
2023-04-05T23:46:07.700Z,7.10
2023-04-05T23:48:35.315Z,6.83
2023-04-05T23:51:02.799Z,6.37
2023-04-05T23:53:30.362Z,6.70
2023-04-05T23:55:57.928Z,6.77
2023-04-05T23:58:26.778Z,6.90
